Time;durP1;ratioP1;P1;durP2;ratioP2;P2;SDS_P1;SDS_P2;PMS_P1;PMS_P2;Temp;Humidity;BMP_temperature;BMP_pressure;BME280_temperature;BME280_humidity;BME280_pressure;Samples;Min_cycle;Max_cycle;Signal;HPM_P1;HPM_P2
2022/08/10 00:00:55;;;;;;;20.70;19.40;;;;;;;;;;5115052;28;20193;-76
2022/08/10 00:03:22;;;;;;;20.15;18.95;;;;;;;;;;5115098;28;20246;-76
2022/08/10 00:05:49;;;;;;;20.13;18.92;;;;;;;;;;5115048;28;20189;-77
2022/08/10 00:08:17;;;;;;;19.25;18.15;;;;;;;;;;5115203;28;20250;-76
2022/08/10 00:10:44;;;;;;;19.25;18.15;;;;;;;;;;5114976;28;20205;-76
2022/08/10 00:13:11;;;;;;;19.58;18.48;;;;;;;;;;5114863;28;20667;-77
2022/08/10 00:15:38;;;;;;;19.33;18.23;;;;;;;;;;5114841;28;20197;-77
2022/08/10 00:18:05;;;;;;;18.35;17.35;;;;;;;;;;5114938;28;20200;-76
2022/08/10 00:20:32;;;;;;;19.40;18.30;;;;;;;;;;5114716;28;20189;-76
2022/08/10 00:22:59;;;;;;;19.98;18.77;;;;;;;;;;5114784;28;20249;-77
2022/08/10 00:25:28;;;;;;;19.95;18.75;;;;;;;;;;5114825;28;20254;-76
2022/08/10 00:27:55;;;;;;;20.75;19.45;;;;;;;;;;5114602;28;20246;-76
2022/08/10 00:30:22;;;;;;;20.38;19.17;;;;;;;;;;5114842;28;20201;-77
2022/08/10 00:32:49;;;;;;;20.70;19.40;;;;;;;;;;5114534;28;20200;-76
2022/08/10 00:35:16;;;;;;;20.50;19.20;;;;;;;;;;5114472;28;20246;-76
2022/08/10 00:37:43;;;;;;;20.90;19.60;;;;;;;;;;5114383;28;20225;-77
2022/08/10 00:40:10;;;;;;;21.02;19.73;;;;;;;;;;5114356;28;20193;-76
2022/08/10 00:42:39;;;;;;;20.65;19.35;;;;;;;;;;5114273;28;20193;-77
2022/08/10 00:45:06;;;;;;;20.30;19.10;;;;;;;;;;5114285;28;20193;-76
2022/08/10 00:47:33;;;;;;;20.70;19.40;;;;;;;;;;5114189;28;20246;-75
2022/08/10 00:50:00;;;;;;;20.70;19.40;;;;;;;;;;5114137;28;20640;-77
2022/08/10 00:52:29;;;;;;;20.33;19.13;;;;;;;;;;5114157;28;20250;-76
2022/08/10 00:54:56;;;;;;;19.98;18.77;;;;;;;;;;5114339;28;20193;-76
2022/08/10 00:57:24;;;;;;;20.17;18.98;;;;;;;;;;5113603;28;20275;-77
2022/08/10 00:59:53;;;;;;;20.02;18.83;;;;;;;;;;5113973;28;20193;-76
2022/08/10 01:02:20;;;;;;;19.67;18.48;;;;;;;;;;5113984;28;20194;-78
2022/08/10 01:04:47;;;;;;;19.70;18.50;;;;;;;;;;5113899;28;20280;-78
2022/08/10 01:07:19;;;;;;;19.73;18.52;;;;;;;;;;5113827;28;20189;-77
2022/08/10 01:09:50;;;;;;;18.98;17.88;;;;;;;;;;5114046;28;20296;-77
2022/08/10 01:12:21;;;;;;;19.48;18.38;;;;;;;;;;5114013;28;20189;-77
2022/08/10 01:14:52;;;;;;;19.52;18.42;;;;;;;;;;5113727;28;20189;-76
2022/08/10 01:17:24;;;;;;;19.50;18.40;;;;;;;;;;5113966;28;20181;-78
2022/08/10 01:19:54;;;;;;;19.25;18.15;;;;;;;;;;5113452;28;20293;-77
2022/08/10 01:22:38;;;;;;;19.35;18.25;;;;;;;;;;5113553;28;20254;-76
2022/08/10 01:25:15;;;;;;;19.33;18.23;;;;;;;;;;5113552;28;20185;-77
2022/08/10 01:27:48;;;;;;;19.92;18.73;;;;;;;;;;5113837;28;20254;-77
2022/08/10 01:30:17;;;;;;;19.35;18.25;;;;;;;;;;5113326;28;20706;-76
2022/08/10 01:32:49;;;;;;;19.98;18.80;;;;;;;;;;5113712;28;20199;-76
2022/08/10 01:35:20;;;;;;;19.42;18.33;;;;;;;;;;5113298;28;20655;-77
2022/08/10 01:37:49;;;;;;;19.38;18.27;;;;;;;;;;5113571;28;20266;-76
2022/08/10 01:40:17;;;;;;;20.50;19.38;;;;;;;;;;5113521;28;20197;-77
2022/08/10 01:42:45;;;;;;;19.65;18.55;;;;;;;;;;5113194;28;20654;-77
2022/08/10 01:45:13;;;;;;;19.15;18.13;;;;;;;;;;5113430;28;20250;-76
2022/08/10 01:50:30;;;;;;;19.35;18.30;;;;;;;;;;5113215;28;20192;-76
2022/08/10 01:53:01;;;;;;;18.33;17.33;;;;;;;;;;5113768;28;20197;-76
2022/08/10 01:55:28;;;;;;;18.27;17.27;;;;;;;;;;5113306;28;20618;-76
2022/08/10 01:57:55;;;;;;;16.75;15.85;;;;;;;;;;5112819;28;20647;-76
2022/08/10 02:00:23;;;;;;;16.98;16.08;;;;;;;;;;5112861;28;20241;-76
2022/08/10 02:02:52;;;;;;;17.20;16.30;;;;;;;;;;5112754;28;20188;-77
2022/08/10 02:05:20;;;;;;;16.88;15.98;;;;;;;;;;5112816;28;20196;-76
2022/08/10 02:07:48;;;;;;;16.77;15.98;;;;;;;;;;5112032;28;20254;-77
2022/08/10 02:10:18;;;;;;;17.17;16.27;;;;;;;;;;5112893;28;20220;-77
2022/08/10 02:12:45;;;;;;;16.58;15.68;;;;;;;;;;5112684;28;20772;-77
2022/08/10 02:15:13;;;;;;;16.73;15.82;;;;;;;;;;5112891;28;20197;-76
2022/08/10 02:17:41;;;;;;;16.65;15.75;;;;;;;;;;5112611;28;20200;-76
2022/08/10 02:20:11;;;;;;;16.52;15.70;;;;;;;;;;5112390;28;20232;-76
2022/08/10 02:22:39;;;;;;;16.35;15.55;;;;;;;;;;5112533;28;20192;-75
2022/08/10 02:25:07;;;;;;;16.33;15.52;;;;;;;;;;5112513;28;20197;-75
2022/08/10 02:27:34;;;;;;;16.60;15.77;;;;;;;;;;5112406;28;20204;-75
2022/08/10 02:30:02;;;;;;;16.75;15.85;;;;;;;;;;5112371;28;20274;-77
2022/08/10 02:32:30;;;;;;;16.88;15.98;;;;;;;;;;5112380;28;20190;-76
2022/08/10 02:34:58;;;;;;;16.52;15.63;;;;;;;;;;5112386;28;20193;-76
2022/08/10 02:37:27;;;;;;;16.52;15.68;;;;;;;;;;5112370;28;20197;-76
2022/08/10 02:39:54;;;;;;;17.00;16.10;;;;;;;;;;5112347;28;20250;-76
2022/08/10 02:42:23;;;;;;;17.13;16.23;;;;;;;;;;5112350;28;20224;-75
2022/08/10 02:44:53;;;;;;;16.85;15.95;;;;;;;;;;5112333;28;20659;-76
2022/08/10 02:47:24;;;;;;;17.60;16.60;;;;;;;;;;5112623;28;20228;-75
2022/08/10 02:49:55;;;;;;;17.27;16.38;;;;;;;;;;5112155;28;20217;-75
2022/08/10 02:52:25;;;;;;;17.75;16.75;;;;;;;;;;5113164;28;20185;-76
2022/08/10 02:54:55;;;;;;;16.83;15.93;;;;;;;;;;5112496;28;20679;-76
2022/08/10 02:57:23;;;;;;;16.33;15.52;;;;;;;;;;5112258;28;20636;-76
2022/08/10 02:59:51;;;;;;;15.80;15.00;;;;;;;;;;5112179;28;20221;-77
2022/08/10 03:02:23;;;;;;;15.90;15.10;;;;;;;;;;5112520;28;20254;-76
2022/08/10 03:04:52;;;;;;;15.70;15.00;;;;;;;;;;5112471;28;20194;-76
2022/08/10 03:07:21;;;;;;;15.63;14.93;;;;;;;;;;5112560;28;20194;-79
2022/08/10 03:09:48;;;;;;;15.43;14.73;;;;;;;;;;5112131;28;20228;-79
2022/08/10 03:12:17;;;;;;;15.43;14.73;;;;;;;;;;5112064;28;20720;-78
2022/08/10 03:14:44;;;;;;;15.40;14.70;;;;;;;;;;5112068;28;20197;-79
2022/08/10 03:17:12;;;;;;;15.50;14.80;;;;;;;;;;5111985;28;20200;-78
2022/08/10 03:19:40;;;;;;;14.95;14.35;;;;;;;;;;5113420;28;20237;-76
2022/08/10 03:22:07;;;;;;;14.60;14.00;;;;;;;;;;5116015;28;20196;-79
2022/08/10 03:24:35;;;;;;;14.70;14.10;;;;;;;;;;5116019;28;20194;-78
2022/08/10 03:27:03;;;;;;;14.40;13.80;;;;;;;;;;5115905;28;20193;-77
2022/08/10 03:29:32;;;;;;;14.15;13.65;;;;;;;;;;5115689;28;20726;-77
2022/08/10 03:32:01;;;;;;;13.52;13.02;;;;;;;;;;5116075;28;20197;-76
2022/08/10 03:34:28;;;;;;;13.35;12.85;;;;;;;;;;5115713;28;20196;-77
2022/08/10 03:36:55;;;;;;;13.70;13.20;;;;;;;;;;5115670;28;20192;-77
2022/08/10 03:39:22;;;;;;;13.63;13.13;;;;;;;;;;5115583;28;20234;-77
2022/08/10 03:41:54;;;;;;;13.48;12.98;;;;;;;;;;5115973;28;20243;-76
2022/08/10 03:44:23;;;;;;;13.70;13.20;;;;;;;;;;5115571;28;20267;-77
2022/08/10 03:46:52;;;;;;;13.95;13.45;;;;;;;;;;5115766;28;20204;-76
2022/08/10 03:49:19;;;;;;;13.93;13.43;;;;;;;;;;5115333;28;20227;-76
2022/08/10 03:51:48;;;;;;;14.70;14.15;;;;;;;;;;5115283;28;20576;-75
2022/08/10 03:54:15;;;;;;;14.95;14.35;;;;;;;;;;5115298;28;20197;-76
2022/08/10 03:56:42;;;;;;;14.35;13.85;;;;;;;;;;5115244;28;20189;-75
2022/08/10 03:59:10;;;;;;;14.52;14.00;;;;;;;;;;5115477;28;20273;-75
2022/08/10 04:01:37;;;;;;;15.02;14.43;;;;;;;;;;5115165;28;20671;-75
2022/08/10 04:04:06;;;;;;;15.98;15.27;;;;;;;;;;5115360;28;20199;-75
2022/08/10 04:06:33;;;;;;;16.17;15.48;;;;;;;;;;5115060;28;20243;-75
2022/08/10 04:09:00;;;;;;;15.38;14.77;;;;;;;;;;5115206;28;20262;-76
2022/08/10 04:11:27;;;;;;;15.88;15.18;;;;;;;;;;5114941;28;20284;-75
2022/08/10 04:13:54;;;;;;;16.08;15.38;;;;;;;;;;5115387;28;20197;-76
2022/08/10 04:16:21;;;;;;;16.35;15.55;;;;;;;;;;5114825;28;20189;-76
2022/08/10 04:18:48;;;;;;;16.25;15.55;;;;;;;;;;5114903;28;20237;-76
2022/08/10 04:21:19;;;;;;;16.02;15.32;;;;;;;;;;5114874;28;20675;-75
2022/08/10 04:23:49;;;;;;;17.05;16.25;;;;;;;;;;5115161;28;20189;-75
2022/08/10 04:26:16;;;;;;;16.80;16.00;;;;;;;;;;5114951;28;20182;-75
2022/08/10 04:28:44;;;;;;;17.05;16.25;;;;;;;;;;5114665;28;20246;-76
2022/08/10 04:31:12;;;;;;;16.55;15.75;;;;;;;;;;5114017;28;20256;-75
2022/08/10 04:33:41;;;;;;;16.75;15.95;;;;;;;;;;5114459;28;20201;-76
2022/08/10 04:36:10;;;;;;;16.92;16.13;;;;;;;;;;5114524;28;20193;-75
2022/08/10 04:38:40;;;;;;;17.35;16.45;;;;;;;;;;5114407;28;20258;-76
2022/08/10 04:41:07;;;;;;;17.20;16.30;;;;;;;;;;5114390;28;20254;-75
2022/08/10 04:43:34;;;;;;;17.10;16.20;;;;;;;;;;5114292;28;20200;-75
2022/08/10 04:46:01;;;;;;;17.08;16.17;;;;;;;;;;5114302;28;20651;-75
2022/08/10 04:48:28;;;;;;;17.80;16.80;;;;;;;;;;5114476;28;20224;-76
2022/08/10 04:50:55;;;;;;;17.88;16.88;;;;;;;;;;5114387;28;20255;-75
2022/08/10 04:53:22;;;;;;;17.90;16.90;;;;;;;;;;5114099;28;20192;-75
2022/08/10 04:55:51;;;;;;;17.88;16.88;;;;;;;;;;5114007;28;20254;-75
2022/08/10 04:58:18;;;;;;;18.15;17.15;;;;;;;;;;5114038;28;20201;-76
2022/08/10 05:00:45;;;;;;;18.75;17.65;;;;;;;;;;5114010;28;20586;-76
2022/08/10 05:03:12;;;;;;;18.75;17.65;;;;;;;;;;5113989;28;20208;-75
2022/08/10 05:05:39;;;;;;;18.10;17.10;;;;;;;;;;5113909;28;20189;-75
2022/08/10 05:08:06;;;;;;;18.27;17.27;;;;;;;;;;5114138;28;20197;-75
2022/08/10 05:10:33;;;;;;;18.02;17.02;;;;;;;;;;5113741;28;20228;-75
2022/08/10 05:13:01;;;;;;;17.80;16.80;;;;;;;;;;5114058;28;20201;-75
2022/08/10 05:15:28;;;;;;;17.90;16.90;;;;;;;;;;5113721;28;20254;-75
2022/08/10 05:17:55;;;;;;;17.58;16.67;;;;;;;;;;5113677;28;20681;-75
2022/08/10 05:20:22;;;;;;;17.73;16.80;;;;;;;;;;5113387;28;20588;-76
2022/08/10 05:22:49;;;;;;;17.45;16.55;;;;;;;;;;5113589;28;20662;-75
2022/08/10 05:25:19;;;;;;;17.40;16.50;;;;;;;;;;5113767;28;20198;-75
2022/08/10 05:27:46;;;;;;;17.65;16.70;;;;;;;;;;5113811;28;20197;-75
2022/08/10 05:30:16;;;;;;;17.90;16.90;;;;;;;;;;5113357;28;20236;-75
2022/08/10 05:32:43;;;;;;;18.08;17.08;;;;;;;;;;5113378;28;20189;-75
2022/08/10 05:35:10;;;;;;;18.10;17.10;;;;;;;;;;5113377;28;20235;-75
2022/08/10 05:37:37;;;;;;;17.95;16.95;;;;;;;;;;5113215;28;20575;-76
2022/08/10 05:40:06;;;;;;;18.45;17.40;;;;;;;;;;5113243;28;20192;-75
2022/08/10 05:42:33;;;;;;;18.58;17.48;;;;;;;;;;5113108;28;20228;-76
2022/08/10 05:45:00;;;;;;;18.42;17.42;;;;;;;;;;5113147;28;20193;-75
2022/08/10 05:47:28;;;;;;;18.50;17.50;;;;;;;;;;5113118;28;20250;-76
2022/08/10 05:49:56;;;;;;;18.35;17.25;;;;;;;;;;5113024;28;20231;-77
2022/08/10 05:52:23;;;;;;;18.83;17.73;;;;;;;;;;5113044;28;20197;-76
2022/08/10 05:54:50;;;;;;;18.25;17.25;;;;;;;;;;5112980;28;20277;-75
2022/08/10 05:57:18;;;;;;;18.42;17.33;;;;;;;;;;5112937;28;20189;-76
2022/08/10 05:59:47;;;;;;;19.20;18.00;;;;;;;;;;5113196;28;20280;-76
2022/08/10 06:02:16;;;;;;;18.73;17.63;;;;;;;;;;5112959;28;20193;-76
2022/08/10 06:04:46;;;;;;;18.60;17.50;;;;;;;;;;5112800;28;20675;-76
2022/08/10 06:07:14;;;;;;;18.75;17.65;;;;;;;;;;5112787;28;20237;-75
2022/08/10 06:09:42;;;;;;;18.25;17.15;;;;;;;;;;5112912;28;20193;-76
2022/08/10 06:12:10;;;;;;;18.23;17.13;;;;;;;;;;5112612;28;20250;-76
2022/08/10 06:17:23;;;;;;;18.23;17.13;;;;;;;;;;5112803;28;20195;-76
2022/08/10 06:19:52;;;;;;;18.13;17.02;;;;;;;;;;5112449;28;20315;-77
2022/08/10 06:22:19;;;;;;;17.75;16.75;;;;;;;;;;5112518;28;20212;-75
2022/08/10 06:24:47;;;;;;;18.10;17.00;;;;;;;;;;5112668;28;20550;-77
2022/08/10 06:27:15;;;;;;;18.17;17.08;;;;;;;;;;5112462;28;20585;-77
2022/08/10 06:29:44;;;;;;;18.55;17.45;;;;;;;;;;5112856;28;20196;-76
2022/08/10 06:32:12;;;;;;;18.55;17.45;;;;;;;;;;5112758;28;20193;-77
2022/08/10 06:34:40;;;;;;;18.67;17.58;;;;;;;;;;5112425;28;20203;-76
2022/08/10 06:37:09;;;;;;;19.02;17.92;;;;;;;;;;5112438;28;20189;-78
2022/08/10 06:39:36;;;;;;;18.70;17.60;;;;;;;;;;5112358;28;20575;-77
2022/08/10 06:42:07;;;;;;;19.27;18.08;;;;;;;;;;5112684;28;20196;-76
2022/08/10 06:44:39;;;;;;;19.60;18.40;;;;;;;;;;5112675;28;20208;-76
2022/08/10 06:47:09;;;;;;;19.23;18.02;;;;;;;;;;5112498;28;20185;-75
2022/08/10 06:49:37;;;;;;;19.38;18.17;;;;;;;;;;5112126;28;20197;-74
2022/08/10 06:52:06;;;;;;;19.20;18.00;;;;;;;;;;5112282;28;20193;-76
2022/08/10 06:54:35;;;;;;;19.27;18.08;;;;;;;;;;5113502;28;20247;-75
2022/08/10 06:57:02;;;;;;;19.48;18.27;;;;;;;;;;5116576;28;20732;-74
2022/08/10 06:59:32;;;;;;;19.02;17.83;;;;;;;;;;5116777;28;20200;-76
2022/08/10 07:02:01;;;;;;;19.67;18.38;;;;;;;;;;5116318;28;20204;-77
2022/08/10 07:04:30;;;;;;;19.80;18.50;;;;;;;;;;5116391;28;20200;-75
2022/08/10 07:06:58;;;;;;;19.27;18.08;;;;;;;;;;5116540;28;20188;-76
2022/08/10 07:09:26;;;;;;;19.60;18.33;;;;;;;;;;5116209;28;20275;-76
2022/08/10 07:11:55;;;;;;;19.65;18.35;;;;;;;;;;5116361;28;20228;-75
2022/08/10 07:14:23;;;;;;;19.88;18.58;;;;;;;;;;5116080;28;20578;-76
2022/08/10 07:16:51;;;;;;;19.60;18.30;;;;;;;;;;5116438;28;20280;-76
2022/08/10 07:19:18;;;;;;;19.80;18.50;;;;;;;;;;5115746;28;20264;-75
2022/08/10 07:21:45;;;;;;;19.60;18.30;;;;;;;;;;5116510;28;20201;-77
2022/08/10 07:24:13;;;;;;;19.30;18.00;;;;;;;;;;5115983;28;20194;-76
2022/08/10 07:26:44;;;;;;;18.98;17.77;;;;;;;;;;5116708;28;20212;-76
2022/08/10 07:29:14;;;;;;;20.13;18.92;;;;;;;;;;5116153;28;20190;-76
2022/08/10 07:31:42;;;;;;;19.67;18.48;;;;;;;;;;5115717;28;20224;-80
2022/08/10 07:34:09;;;;;;;19.95;18.65;;;;;;;;;;5115814;28;20197;-75
2022/08/10 07:36:36;;;;;;;19.52;18.33;;;;;;;;;;5115684;28;20228;-78
2022/08/10 07:39:04;;;;;;;19.65;18.45;;;;;;;;;;5116056;28;20197;-77
2022/08/10 07:41:33;;;;;;;19.95;18.73;;;;;;;;;;5115531;28;20243;-75
2022/08/10 07:44:03;;;;;;;19.75;18.55;;;;;;;;;;5115879;28;20224;-77
2022/08/10 07:46:33;;;;;;;19.70;18.50;;;;;;;;;;5115433;28;20205;-79
2022/08/10 07:49:02;;;;;;;19.67;18.48;;;;;;;;;;5115495;28;20192;-76
2022/08/10 07:51:31;;;;;;;19.85;18.63;;;;;;;;;;5115335;28;20233;-77
2022/08/10 07:54:00;;;;;;;19.42;18.23;;;;;;;;;;5115401;28;20197;-75
2022/08/10 07:56:28;;;;;;;19.40;18.20;;;;;;;;;;5115283;28;20550;-76
2022/08/10 07:58:59;;;;;;;19.58;18.38;;;;;;;;;;5115547;28;20197;-76
2022/08/10 08:01:28;;;;;;;19.55;18.35;;;;;;;;;;5115263;28;20225;-74
2022/08/10 08:03:57;;;;;;;19.55;18.35;;;;;;;;;;5115431;28;20602;-75
2022/08/10 08:06:24;;;;;;;19.77;18.58;;;;;;;;;;5114128;28;20196;-76
2022/08/10 08:08:51;;;;;;;20.02;18.73;;;;;;;;;;5115873;28;20247;-76
2022/08/10 08:11:19;;;;;;;19.83;18.52;;;;;;;;;;5115098;28;20221;-74
2022/08/10 08:13:47;;;;;;;20.02;18.73;;;;;;;;;;5115282;28;20193;-77
2022/08/10 08:16:14;;;;;;;20.02;18.73;;;;;;;;;;5115171;28;20271;-72
2022/08/10 08:18:42;;;;;;;20.05;18.75;;;;;;;;;;5114645;28;20225;-75
2022/08/10 08:21:10;;;;;;;19.88;18.58;;;;;;;;;;5114805;28;20221;-77
2022/08/10 08:23:39;;;;;;;20.33;19.02;;;;;;;;;;5114764;28;20193;-80
2022/08/10 08:26:07;;;;;;;20.27;18.98;;;;;;;;;;5114744;28;20746;-74
2022/08/10 08:28:34;;;;;;;20.38;19.08;;;;;;;;;;5114641;28;20574;-74
2022/08/10 08:31:02;;;;;;;20.35;19.05;;;;;;;;;;5114864;28;20225;-73
2022/08/10 08:33:29;;;;;;;20.17;18.88;;;;;;;;;;5114526;28;20193;-80
2022/08/10 08:35:57;;;;;;;20.10;18.80;;;;;;;;;;5114861;28;20208;-75
2022/08/10 08:38:25;;;;;;;20.33;19.02;;;;;;;;;;5114610;28;20659;-73
2022/08/10 08:40:57;;;;;;;20.20;18.90;;;;;;;;;;5114839;28;20197;-77
2022/08/10 08:43:33;;;;;;;20.35;19.05;;;;;;;;;;5114472;28;20189;-73
2022/08/10 08:46:13;;;;;;;20.35;19.05;;;;;;;;;;5114758;28;20181;-81
2022/08/10 08:48:53;;;;;;;20.30;19.00;;;;;;;;;;5114285;28;20609;-80
2022/08/10 08:51:25;;;;;;;20.20;18.90;;;;;;;;;;5114263;28;20213;-74
2022/08/10 08:54:00;;;;;;;20.70;19.40;;;;;;;;;;5114219;28;20181;-82
2022/08/10 08:56:29;;;;;;;21.30;19.90;;;;;;;;;;5114211;28;20180;-73
2022/08/10 08:59:05;;;;;;;20.15;18.85;;;;;;;;;;5114052;28;20197;-75
2022/08/10 09:01:41;;;;;;;19.80;18.50;;;;;;;;;;5114092;28;20185;-78
2022/08/10 09:04:24;;;;;;;20.30;18.90;;;;;;;;;;5114364;28;20262;-75
2022/08/10 09:06:55;;;;;;;20.00;18.70;;;;;;;;;;5114243;28;20439;-76
2022/08/10 09:09:32;;;;;;;20.23;18.92;;;;;;;;;;5113936;28;20203;-79
2022/08/10 09:12:05;;;;;;;20.17;18.88;;;;;;;;;;5113739;28;20216;-74
2022/08/10 09:14:37;;;;;;;19.98;18.67;;;;;;;;;;5113822;28;20220;-75
2022/08/10 09:17:10;;;;;;;20.08;18.67;;;;;;;;;;5113402;28;20263;-77
2022/08/10 09:19:41;;;;;;;19.60;18.30;;;;;;;;;;5113775;28;20660;-74
2022/08/10 09:22:13;;;;;;;19.90;18.60;;;;;;;;;;5113651;28;20185;-76
2022/08/10 09:24:45;;;;;;;20.33;18.92;;;;;;;;;;5113673;28;20231;-76
2022/08/10 09:27:15;;;;;;;20.05;18.75;;;;;;;;;;5113613;28;20189;-73
2022/08/10 09:29:44;;;;;;;20.25;18.85;;;;;;;;;;5113828;28;20216;-74
2022/08/10 09:32:13;;;;;;;20.00;18.60;;;;;;;;;;5113337;28;20233;-76
2022/08/10 09:34:48;;;;;;;19.83;18.52;;;;;;;;;;5113746;28;20225;-78
2022/08/10 09:37:20;;;;;;;19.88;18.58;;;;;;;;;;5113354;28;20195;-79
2022/08/10 09:39:52;;;;;;;19.55;18.25;;;;;;;;;;5113431;28;20185;-77
2022/08/10 09:42:25;;;;;;;19.65;18.35;;;;;;;;;;5113327;28;20197;-82
2022/08/10 09:44:56;;;;;;;20.63;19.33;;;;;;;;;;5113305;28;20656;-75
2022/08/10 09:47:34;;;;;;;20.15;18.85;;;;;;;;;;5113124;28;20754;-76
2022/08/10 09:50:08;;;;;;;19.80;18.55;;;;;;;;;;5113348;28;20228;-77
2022/08/10 09:52:41;;;;;;;20.13;18.83;;;;;;;;;;5113080;28;20300;-77
2022/08/10 09:55:17;;;;;;;20.02;18.73;;;;;;;;;;5113159;28;20647;-76
2022/08/10 09:57:52;;;;;;;20.52;19.13;;;;;;;;;;5113087;28;20189;-79
2022/08/10 10:00:20;;;;;;;20.33;19.02;;;;;;;;;;5113048;28;20184;-74
2022/08/10 10:02:51;;;;;;;19.98;18.67;;;;;;;;;;5112923;28;20204;-75
2022/08/10 10:05:27;;;;;;;20.48;19.08;;;;;;;;;;5113318;28;20281;-76
2022/08/10 10:07:58;;;;;;;19.98;18.65;;;;;;;;;;5112883;28;20561;-83
2022/08/10 10:10:30;;;;;;;20.48;19.08;;;;;;;;;;5112836;28;20682;-75
2022/08/10 10:12:59;;;;;;;20.17;18.88;;;;;;;;;;5113220;28;20239;-76
2022/08/10 10:15:31;;;;;;;20.23;18.92;;;;;;;;;;5112833;28;20280;-79
2022/08/10 10:18:13;;;;;;;20.30;19.00;;;;;;;;;;5112822;28;20272;-76
2022/08/10 10:20:42;;;;;;;21.80;20.40;;;;;;;;;;5109710;28;20201;-78
2022/08/10 10:23:15;;;;;;;22.02;20.63;;;;;;;;;;5112565;28;20279;-74
2022/08/10 10:25:47;;;;;;;20.42;19.13;;;;;;;;;;5112590;28;20192;-77
2022/08/10 10:28:31;;;;;;;20.10;18.83;;;;;;;;;;5112494;28;20552;-77
2022/08/10 10:31:04;;;;;;;20.23;18.92;;;;;;;;;;5112200;28;20216;-76
2022/08/10 10:33:36;;;;;;;20.20;18.90;;;;;;;;;;5112785;28;20207;-75
2022/08/10 10:36:04;;;;;;;20.58;19.27;;;;;;;;;;5112957;28;20268;-75
2022/08/10 10:38:34;;;;;;;20.38;19.08;;;;;;;;;;5112736;28;20272;-76
2022/08/10 10:41:08;;;;;;;20.65;19.35;;;;;;;;;;5112527;28;20254;-76
2022/08/10 10:43:42;;;;;;;20.40;19.10;;;;;;;;;;5112724;28;20323;-78
2022/08/10 10:46:14;;;;;;;20.00;18.70;;;;;;;;;;5112690;28;20185;-76
2022/08/10 10:48:45;;;;;;;20.33;19.02;;;;;;;;;;5112718;28;20219;-77
2022/08/10 10:51:16;;;;;;;20.15;18.90;;;;;;;;;;5112295;28;20213;-79
2022/08/10 10:53:47;;;;;;;20.30;19.00;;;;;;;;;;5112206;28;20279;-77
2022/08/10 10:56:18;;;;;;;20.42;19.13;;;;;;;;;;5112383;28;20228;-75
2022/08/10 10:58:53;;;;;;;20.25;18.95;;;;;;;;;;5112212;28;20252;-76
2022/08/10 11:01:26;;;;;;;20.60;19.30;;;;;;;;;;5112299;28;20275;-76
2022/08/10 11:04:01;;;;;;;19.95;18.65;;;;;;;;;;5112154;28;20200;-78
2022/08/10 11:06:37;;;;;;;20.23;18.92;;;;;;;;;;5112243;28;20195;-74
2022/08/10 11:09:06;;;;;;;20.38;19.08;;;;;;;;;;5112207;28;20187;-76
2022/08/10 11:11:36;;;;;;;20.17;18.88;;;;;;;;;;5112459;28;20232;-74
2022/08/10 11:14:08;;;;;;;21.02;19.63;;;;;;;;;;5112050;28;20684;-76
2022/08/10 11:16:37;;;;;;;20.42;19.13;;;;;;;;;;5112148;28;20189;-77
2022/08/10 11:19:10;;;;;;;20.08;18.77;;;;;;;;;;5111759;28;20238;-75
2022/08/10 11:21:43;;;;;;;20.08;18.77;;;;;;;;;;5112216;28;20197;-74
2022/08/10 11:24:14;;;;;;;20.20;18.90;;;;;;;;;;5112320;28;20188;-75
2022/08/10 11:26:47;;;;;;;19.85;18.55;;;;;;;;;;5112014;28;20186;-75
2022/08/10 11:29:16;;;;;;;19.92;18.63;;;;;;;;;;5111973;28;20185;-78
2022/08/10 11:31:46;;;;;;;19.77;18.48;;;;;;;;;;5112214;28;20307;-75
2022/08/10 11:34:17;;;;;;;20.25;18.95;;;;;;;;;;5112833;28;20204;-76
2022/08/10 11:36:50;;;;;;;19.60;18.40;;;;;;;;;;5112006;28;20293;-74
2022/08/10 11:39:19;;;;;;;19.42;18.23;;;;;;;;;;5111920;28;20673;-75
2022/08/10 11:41:51;;;;;;;18.95;17.75;;;;;;;;;;5115224;28;20189;-76
2022/08/10 11:44:21;;;;;;;18.80;17.60;;;;;;;;;;5115666;28;20186;-74
2022/08/10 11:46:51;;;;;;;18.77;17.58;;;;;;;;;;5116099;28;20192;-74
2022/08/10 11:49:23;;;;;;;18.88;17.67;;;;;;;;;;5115555;28;20238;-74
2022/08/10 11:51:54;;;;;;;18.50;17.30;;;;;;;;;;5115338;28;20270;-76
2022/08/10 11:54:25;;;;;;;19.20;18.00;;;;;;;;;;5115764;28;20181;-74
2022/08/10 11:56:56;;;;;;;18.90;17.70;;;;;;;;;;5115651;28;20186;-74
2022/08/10 12:02:11;;;;;;;19.48;18.27;;;;;;;;;;5115771;28;20234;-76
2022/08/10 12:04:40;;;;;;;19.25;18.05;;;;;;;;;;5115247;28;20199;-75
2022/08/10 12:07:08;;;;;;;19.15;17.85;;;;;;;;;;5115468;28;20246;-77
2022/08/10 12:09:35;;;;;;;19.88;18.48;;;;;;;;;;5115109;28;20189;-75
2022/08/10 12:12:05;;;;;;;19.52;18.23;;;;;;;;;;5115039;28;20312;-78
2022/08/10 12:14:34;;;;;;;19.73;18.40;;;;;;;;;;5115086;28;20651;-73
2022/08/10 12:17:03;;;;;;;20.15;18.83;;;;;;;;;;5114847;28;20637;-76
2022/08/10 12:19:36;;;;;;;21.90;20.40;;;;;;;;;;5114802;28;20235;-71
2022/08/10 12:22:05;;;;;;;22.92;21.23;;;;;;;;;;5114854;28;20189;-71
2022/08/10 12:24:36;;;;;;;22.20;20.70;;;;;;;;;;5115098;28;20193;-71
2022/08/10 12:27:07;;;;;;;23.65;22.05;;;;;;;;;;5114789;28;20189;-70
2022/08/10 12:29:38;;;;;;;23.27;21.77;;;;;;;;;;5114689;28;20236;-70
2022/08/10 12:32:11;;;;;;;24.35;22.85;;;;;;;;;;5114610;28;20687;-70
2022/08/10 12:34:41;;;;;;;21.70;20.30;;;;;;;;;;5114614;28;20277;-72
2022/08/10 12:37:15;;;;;;;21.63;20.25;;;;;;;;;;5114930;28;20186;-73
2022/08/10 12:39:50;;;;;;;21.48;20.17;;;;;;;;;;5114847;28;20268;-73
2022/08/10 12:42:22;;;;;;;21.42;20.23;;;;;;;;;;5114839;28;20268;-74
2022/08/10 12:44:53;;;;;;;20.40;19.30;;;;;;;;;;5114461;28;20647;-74
2022/08/10 12:47:24;;;;;;;20.63;19.52;;;;;;;;;;5114420;28;20196;-75
2022/08/10 12:49:53;;;;;;;21.17;19.90;;;;;;;;;;5114338;28;20192;-73
2022/08/10 12:52:24;;;;;;;22.00;20.70;;;;;;;;;;5113847;28;20229;-74
2022/08/10 12:54:52;;;;;;;22.08;20.67;;;;;;;;;;5114506;28;20185;-75
2022/08/10 12:57:22;;;;;;;22.10;20.70;;;;;;;;;;5114184;28;20225;-75
2022/08/10 12:59:52;;;;;;;22.25;20.85;;;;;;;;;;5114062;28;20674;-73
2022/08/10 13:02:21;;;;;;;22.40;21.00;;;;;;;;;;5114067;28;20240;-73
2022/08/10 13:04:50;;;;;;;22.23;20.83;;;;;;;;;;5114266;28;20197;-74
2022/08/10 13:07:22;;;;;;;23.90;22.30;;;;;;;;;;5114765;28;20545;-74
2022/08/10 13:09:49;;;;;;;23.33;21.73;;;;;;;;;;5113910;28;20659;-74
2022/08/10 13:12:17;;;;;;;23.17;21.58;;;;;;;;;;5113821;28;20229;-74
2022/08/10 13:14:50;;;;;;;22.95;21.35;;;;;;;;;;5113836;28;20226;-75
2022/08/10 13:17:21;;;;;;;22.70;21.10;;;;;;;;;;5113735;28;20644;-76
2022/08/10 13:19:49;;;;;;;22.77;21.10;;;;;;;;;;5113640;28;20678;-75
2022/08/10 13:22:17;;;;;;;23.27;21.67;;;;;;;;;;5113596;28;20570;-74
2022/08/10 13:24:46;;;;;;;22.60;21.00;;;;;;;;;;5113939;28;20208;-75
2022/08/10 13:27:14;;;;;;;22.50;20.90;;;;;;;;;;5113505;28;20200;-75
2022/08/10 13:29:43;;;;;;;21.80;20.20;;;;;;;;;;5113822;28;20204;-74
2022/08/10 13:32:12;;;;;;;22.15;20.55;;;;;;;;;;5113504;28;20217;-75
2022/08/10 13:34:44;;;;;;;22.20;20.70;;;;;;;;;;5113444;28;20197;-75
2022/08/10 13:37:14;;;;;;;21.55;20.05;;;;;;;;;;5113436;28;20185;-75
2022/08/10 13:39:43;;;;;;;21.60;20.10;;;;;;;;;;5113331;28;20651;-75
2022/08/10 13:42:12;;;;;;;21.60;20.10;;;;;;;;;;5113361;28;20238;-75
2022/08/10 13:44:41;;;;;;;21.38;19.88;;;;;;;;;;5113191;28;20247;-75
2022/08/10 13:47:08;;;;;;;21.67;20.17;;;;;;;;;;5113473;28;20618;-74
2022/08/10 13:49:43;;;;;;;21.15;19.67;;;;;;;;;;5113909;28;20199;-75
2022/08/10 13:52:12;;;;;;;20.70;19.30;;;;;;;;;;5113103;28;20221;-75
2022/08/10 13:54:41;;;;;;;21.10;19.60;;;;;;;;;;5113833;28;20386;-75
2022/08/10 13:57:10;;;;;;;20.85;19.35;;;;;;;;;;5113292;28;20266;-75
2022/08/10 13:59:39;;;;;;;20.70;19.30;;;;;;;;;;5112889;28;20250;-75
2022/08/10 14:02:06;;;;;;;19.95;18.55;;;;;;;;;;5112927;28;20721;-74
2022/08/10 14:04:33;;;;;;;20.23;18.83;;;;;;;;;;5111960;28;20251;-74
2022/08/10 14:07:03;;;;;;;20.30;18.90;;;;;;;;;;5113223;28;20716;-75
2022/08/10 14:09:32;;;;;;;20.25;18.85;;;;;;;;;;5112802;28;20201;-77
2022/08/10 14:12:00;;;;;;;20.40;19.00;;;;;;;;;;5112626;28;20189;-75
2022/08/10 14:14:28;;;;;;;20.00;18.60;;;;;;;;;;5112744;28;20276;-75
2022/08/10 14:16:55;;;;;;;19.70;18.30;;;;;;;;;;5112665;28;20189;-74
2022/08/10 14:19:24;;;;;;;19.88;18.50;;;;;;;;;;5112631;28;20366;-75
2022/08/10 14:21:51;;;;;;;19.70;18.38;;;;;;;;;;5112630;28;20193;-75
2022/08/10 14:24:23;;;;;;;19.48;18.17;;;;;;;;;;5112562;28;20199;-73
2022/08/10 14:26:52;;;;;;;19.55;18.35;;;;;;;;;;5112876;28;20589;-74
2022/08/10 14:29:20;;;;;;;19.10;17.80;;;;;;;;;;5112479;28;20193;-72
2022/08/10 14:31:48;;;;;;;19.00;17.80;;;;;;;;;;5112475;28;20250;-74
2022/08/10 14:34:16;;;;;;;18.30;17.20;;;;;;;;;;5112396;28;20231;-77
2022/08/10 14:36:44;;;;;;;17.30;16.30;;;;;;;;;;5112456;28;20651;-73